createdAt,value
2019-02-20T00:00:49.790Z,34.33
2019-02-20T00:03:21.851Z,39.53
2019-02-20T00:05:54.015Z,36.67
2019-02-20T00:08:29.783Z,38.43
2019-02-20T00:11:02.921Z,38.33
2019-02-20T00:13:34.895Z,41.27
2019-02-20T00:16:07.010Z,41.93
2019-02-20T00:18:39.058Z,37.93
2019-02-20T00:21:12.057Z,36.33
2019-02-20T00:23:44.014Z,38.07
2019-02-20T00:26:16.259Z,36.97
2019-02-20T00:28:48.262Z,37.20
2019-02-20T00:31:21.699Z,34.20
2019-02-20T00:33:55.937Z,33.17
2019-02-20T00:36:27.948Z,35.67
2019-02-20T00:39:00.039Z,36.23
2019-02-20T00:41:32.280Z,36.97
2019-02-20T00:44:24.598Z,38.07
2019-02-20T00:47:14.143Z,37.50
2019-02-20T00:49:49.527Z,37.07
2019-02-20T00:52:34.190Z,36.23
2019-02-20T00:55:07.770Z,35.73
2019-02-20T00:57:39.942Z,34.50
2019-02-20T01:00:14.676Z,32.27
2019-02-20T01:02:46.666Z,34.93
2019-02-20T01:05:18.618Z,34.87
2019-02-20T01:07:50.828Z,38.83
2019-02-20T01:10:25.303Z,35.03
2019-02-20T01:12:57.469Z,37.60
2019-02-20T01:15:30.421Z,39.30
2019-02-20T01:18:03.694Z,40.07
2019-02-20T01:20:35.869Z,41.00
2019-02-20T01:23:08.312Z,37.43
2019-02-20T01:25:40.351Z,38.67
2019-02-20T01:28:13.436Z,39.53
2019-02-20T01:30:45.647Z,35.50
2019-02-20T01:33:18.226Z,38.90
2019-02-20T01:35:50.481Z,38.83
2019-02-20T01:38:22.655Z,37.30
2019-02-20T01:40:54.720Z,33.63
2019-02-20T01:43:28.951Z,35.87
2019-02-20T01:46:01.045Z,32.93
2019-02-20T01:48:33.527Z,36.73
2019-02-20T01:51:06.729Z,33.53
2019-02-20T01:53:38.651Z,39.27
2019-02-20T01:56:10.656Z,35.10
2019-02-20T01:58:42.643Z,36.00
2019-02-20T02:01:15.796Z,37.57
2019-02-20T02:03:49.915Z,38.40
2019-02-20T02:06:21.981Z,36.23
2019-02-20T02:08:54.285Z,39.87
2019-02-20T02:11:26.364Z,39.10
2019-02-20T02:13:59.673Z,37.23
2019-02-20T02:16:31.836Z,39.63
2019-02-20T02:19:06.296Z,40.13
2019-02-20T02:21:38.378Z,40.77
2019-02-20T02:24:10.283Z,44.23
2019-02-20T02:26:42.331Z,38.37
2019-02-20T02:29:14.595Z,40.57
2019-02-20T02:31:46.869Z,40.23
2019-02-20T02:34:18.921Z,40.00
2019-02-20T02:36:52.341Z,41.10
2019-02-20T02:39:24.627Z,47.27
2019-02-20T02:41:56.680Z,45.03
2019-02-20T02:44:28.804Z,43.80
2019-02-20T02:47:01.990Z,41.20
2019-02-20T02:49:34.371Z,44.07
2019-02-20T02:52:07.628Z,41.30
2019-02-20T02:54:39.695Z,42.83
2019-02-20T02:57:13.555Z,43.47
2019-02-20T02:59:45.778Z,40.93
2019-02-20T03:02:18.255Z,44.77
2019-02-20T03:04:51.433Z,47.00
2019-02-20T03:07:24.390Z,44.77
2019-02-20T03:09:56.309Z,43.50
2019-02-20T03:12:28.476Z,46.13
2019-02-20T03:15:00.715Z,44.97
2019-02-20T03:17:32.851Z,44.90
2019-02-20T03:20:04.896Z,46.27
2019-02-20T03:22:37.303Z,43.97
2019-02-20T03:25:10.510Z,45.43
2019-02-20T03:27:43.508Z,41.27
2019-02-20T03:30:15.708Z,42.80
2019-02-20T03:32:48.052Z,41.07
2019-02-20T03:35:20.170Z,43.80
2019-02-20T03:37:53.319Z,46.17
2019-02-20T03:40:27.825Z,43.07
2019-02-20T03:43:00.058Z,41.20
2019-02-20T03:45:32.111Z,40.67
2019-02-20T03:48:04.767Z,45.07
2019-02-20T03:50:38.581Z,43.13
2019-02-20T03:53:11.697Z,40.23
2019-02-20T03:55:46.093Z,41.97
2019-02-20T03:58:19.260Z,38.87
2019-02-20T04:00:51.626Z,40.30
2019-02-20T04:03:25.028Z,42.13
2019-02-20T04:05:58.429Z,38.27
2019-02-20T04:08:31.368Z,36.70
2019-02-20T04:11:03.699Z,43.30
2019-02-20T04:13:35.990Z,37.20
2019-02-20T04:16:09.412Z,40.13
2019-02-20T04:18:41.686Z,40.57
2019-02-20T04:21:14.770Z,38.53
2019-02-20T04:23:46.799Z,37.27
2019-02-20T04:26:18.975Z,38.27
2019-02-20T04:28:51.183Z,38.27
2019-02-20T04:31:23.481Z,39.80
2019-02-20T04:33:55.515Z,39.03
2019-02-20T04:36:28.650Z,41.87
2019-02-20T04:39:01.875Z,40.63
2019-02-20T04:41:35.611Z,39.10
2019-02-20T04:44:08.525Z,39.70
2019-02-20T04:46:41.773Z,42.67
2019-02-20T04:49:13.770Z,39.43
2019-02-20T04:51:46.889Z,40.03
2019-02-20T04:54:19.032Z,40.20
2019-02-20T04:56:52.455Z,42.50
2019-02-20T04:59:24.641Z,39.57
2019-02-20T05:01:56.704Z,40.40
2019-02-20T05:04:30.502Z,41.60
2019-02-20T05:07:02.449Z,44.93
2019-02-20T05:09:35.599Z,48.40
2019-02-20T05:12:10.333Z,47.13
2019-02-20T05:14:43.300Z,47.43
2019-02-20T05:17:15.306Z,52.10
2019-02-20T05:19:48.648Z,52.70
2019-02-20T05:22:21.682Z,51.93
2019-02-20T05:24:54.983Z,51.30
2019-02-20T05:27:31.126Z,45.60
2019-02-20T05:30:13.806Z,45.53
2019-02-20T05:32:47.097Z,50.87
2019-02-20T05:35:19.379Z,43.00
2019-02-20T05:37:51.647Z,50.37
2019-02-20T05:40:24.727Z,52.00
2019-02-20T05:42:56.874Z,51.30
2019-02-20T05:45:30.020Z,50.73
2019-02-20T05:48:03.379Z,50.13
2019-02-20T05:50:35.823Z,49.53
2019-02-20T05:53:09.958Z,46.77
2019-02-20T05:55:43.684Z,44.77
2019-02-20T05:58:18.877Z,51.03
2019-02-20T06:00:51.124Z,53.13
2019-02-20T06:03:23.658Z,54.67
2019-02-20T06:05:56.025Z,51.00
2019-02-20T06:08:30.294Z,45.50
2019-02-20T06:11:02.625Z,52.93
2019-02-20T06:13:34.761Z,53.43
2019-02-20T06:16:09.356Z,57.03
2019-02-20T06:18:45.632Z,54.17
2019-02-20T06:21:18.084Z,55.30
2019-02-20T06:23:51.097Z,57.33
2019-02-20T06:26:23.935Z,54.50
2019-02-20T06:28:56.569Z,58.33
2019-02-20T06:31:28.678Z,55.40
2019-02-20T06:34:00.614Z,56.53
2019-02-20T06:36:33.895Z,50.73
2019-02-20T06:39:07.367Z,56.73
2019-02-20T06:41:39.695Z,51.93
2019-02-20T06:44:14.132Z,52.13
2019-02-20T06:46:46.180Z,50.97
2019-02-20T06:49:33.778Z,52.17
2019-02-20T06:52:05.902Z,53.97
2019-02-20T06:54:37.998Z,50.07
2019-02-20T06:57:11.025Z,49.70
2019-02-20T06:59:43.234Z,53.67
2019-02-20T07:02:15.612Z,46.30
2019-02-20T07:05:23.657Z,53.93
2019-02-20T07:08:40.583Z,47.60
2019-02-20T07:12:00.192Z,50.20
2019-02-20T07:15:34.237Z,49.80
2019-02-20T07:18:42.799Z,48.30
2019-02-20T07:21:24.865Z,52.30
2019-02-20T07:24:22.206Z,48.53
2019-02-20T07:27:30.898Z,49.87
2019-02-20T07:30:05.108Z,44.87
2019-02-20T07:32:37.874Z,42.20
2019-02-20T07:35:13.244Z,39.67
2019-02-20T07:37:45.994Z,44.03
2019-02-20T07:40:19.642Z,43.43
2019-02-20T07:42:51.708Z,41.60
2019-02-20T07:45:25.835Z,42.17
2019-02-20T07:47:57.872Z,42.23
2019-02-20T07:50:30.017Z,43.37
2019-02-20T07:53:02.178Z,38.27
2019-02-20T07:55:34.354Z,40.43
2019-02-20T07:58:07.492Z,41.90
2019-02-20T08:00:39.747Z,41.27
2019-02-20T08:03:11.747Z,44.30
2019-02-20T08:05:43.826Z,40.47
2019-02-20T08:08:16.160Z,43.03
2019-02-20T08:10:48.184Z,40.40
2019-02-20T08:13:20.324Z,41.70
2019-02-20T08:15:52.924Z,42.90
2019-02-20T08:18:26.924Z,44.47
2019-02-20T08:20:59.217Z,42.13
2019-02-20T08:23:31.991Z,48.97
2019-02-20T08:26:05.327Z,45.23
2019-02-20T08:28:37.627Z,43.57
2019-02-20T08:31:11.409Z,44.20
2019-02-20T08:33:43.454Z,42.30
2019-02-20T08:36:16.439Z,47.80
2019-02-20T08:38:48.486Z,44.97
2019-02-20T08:41:22.501Z,46.77
2019-02-20T08:43:54.845Z,43.87
2019-02-20T08:46:26.985Z,47.93
2019-02-20T08:48:59.152Z,49.27
2019-02-20T08:51:31.331Z,44.80
2019-02-20T08:54:04.740Z,45.43
2019-02-20T08:56:37.104Z,42.10
2019-02-20T08:59:09.430Z,43.53
2019-02-20T09:01:42.677Z,44.53
2019-02-20T09:04:15.684Z,41.33
2019-02-20T09:06:49.691Z,36.80
2019-02-20T09:09:21.743Z,40.87
2019-02-20T09:11:53.811Z,35.03
2019-02-20T09:14:26.007Z,40.00
2019-02-20T09:16:59.387Z,37.10
2019-02-20T09:19:33.583Z,35.13
2019-02-20T09:22:07.115Z,35.43
2019-02-20T09:24:40.661Z,36.30
2019-02-20T09:27:12.733Z,32.00
2019-02-20T09:29:44.779Z,35.00
2019-02-20T09:32:16.971Z,35.63
2019-02-20T09:34:50.391Z,30.87
2019-02-20T09:37:22.623Z,33.07
2019-02-20T09:39:54.985Z,32.27
2019-02-20T09:42:27.759Z,30.80
2019-02-20T09:45:00.334Z,34.03
2019-02-20T09:47:32.458Z,30.70
2019-02-20T09:50:04.862Z,31.30
2019-02-20T09:52:37.281Z,29.43
2019-02-20T09:55:10.384Z,30.27
2019-02-20T09:57:43.576Z,34.40
2019-02-20T10:00:16.118Z,29.47
2019-02-20T10:02:48.709Z,33.47
2019-02-20T10:05:20.930Z,31.30
2019-02-20T10:07:53.133Z,30.90
2019-02-20T10:10:27.395Z,30.00
2019-02-20T10:13:00.480Z,29.33
2019-02-20T10:15:33.107Z,28.67
2019-02-20T10:18:07.662Z,30.17
2019-02-20T10:20:39.787Z,25.60
2019-02-20T10:23:13.293Z,30.70
2019-02-20T10:25:47.645Z,31.83
2019-02-20T10:28:19.758Z,25.03
2019-02-20T10:30:51.818Z,29.30
2019-02-20T10:33:25.507Z,32.37
2019-02-20T10:36:00.337Z,26.50
2019-02-20T10:38:32.543Z,29.83
2019-02-20T10:41:06.273Z,30.03
2019-02-20T10:43:38.743Z,26.50
2019-02-20T10:46:11.737Z,27.33
2019-02-20T10:48:43.712Z,25.80
2019-02-20T10:51:15.832Z,28.33
2019-02-20T10:53:50.508Z,28.50
2019-02-20T10:56:22.930Z,26.47
2019-02-20T10:58:55.289Z,30.33
2019-02-20T11:01:28.907Z,29.47
2019-02-20T11:04:00.888Z,29.03
2019-02-20T11:06:34.469Z,25.47
2019-02-20T11:09:07.740Z,27.13
2019-02-20T11:11:41.076Z,31.73
2019-02-20T11:14:14.519Z,26.17
2019-02-20T11:16:47.460Z,30.23
2019-02-20T11:19:19.562Z,30.43
2019-02-20T11:21:51.816Z,25.30
2019-02-20T11:24:23.857Z,32.37
2019-02-20T11:26:58.156Z,32.57
2019-02-20T11:29:31.224Z,29.07
2019-02-20T11:32:02.783Z,26.27
2019-02-20T11:34:35.844Z,27.53
2019-02-20T11:37:07.798Z,27.27
2019-02-20T11:39:39.592Z,26.30
2019-02-20T11:42:11.406Z,24.63
2019-02-20T11:44:43.381Z,25.87
2019-02-20T11:47:15.341Z,28.57
2019-02-20T11:49:47.242Z,23.87
2019-02-20T11:52:22.190Z,28.20
2019-02-20T11:54:54.079Z,25.83
2019-02-20T11:57:25.969Z,28.33
2019-02-20T11:59:57.869Z,29.33
2019-02-20T12:02:37.224Z,23.87
2019-02-20T12:05:03.299Z,28.53
2019-02-20T12:07:35.113Z,22.60
2019-02-20T12:10:09.009Z,23.83
2019-02-20T12:12:40.792Z,24.70
2019-02-20T12:15:12.959Z,27.87
2019-02-20T12:17:44.804Z,22.70
2019-02-20T12:20:16.700Z,26.50
2019-02-20T12:22:48.565Z,19.33
2019-02-20T12:25:20.786Z,26.37
2019-02-20T12:27:52.691Z,24.10
2019-02-20T12:30:24.587Z,31.33
2019-02-20T12:32:56.435Z,21.93
2019-02-20T12:35:28.319Z,20.87
2019-02-20T12:38:00.125Z,20.67
2019-02-20T12:40:33.146Z,21.27
2019-02-20T12:43:04.949Z,19.80
2019-02-20T12:45:36.839Z,20.27
2019-02-20T12:48:08.759Z,22.47
2019-02-20T12:50:40.546Z,22.30
2019-02-20T12:53:13.474Z,18.77
2019-02-20T12:55:45.231Z,28.90
2019-02-20T12:58:17.127Z,19.33
2019-02-20T13:00:48.943Z,18.43
2019-02-20T13:03:20.772Z,21.00
2019-02-20T13:05:52.681Z,16.13
2019-02-20T13:08:25.376Z,16.73
2019-02-20T13:10:57.330Z,17.83
2019-02-20T13:13:29.247Z,17.93
2019-02-20T13:16:09.347Z,14.50
2019-02-20T13:18:36.935Z,15.97
2019-02-20T13:21:11.125Z,16.00
2019-02-20T13:23:45.738Z,15.17
2019-02-20T13:26:17.558Z,10.50
2019-02-20T13:28:49.349Z,18.80
2019-02-20T13:31:22.272Z,15.67
2019-02-20T13:33:55.275Z,18.43
2019-02-20T13:36:28.355Z,17.90
2019-02-20T13:39:00.401Z,21.57
2019-02-20T13:41:33.803Z,16.37
2019-02-20T13:44:05.709Z,16.60
2019-02-20T13:46:40.723Z,15.67
2019-02-20T13:49:13.709Z,17.43
2019-02-20T13:51:45.685Z,15.70
2019-02-20T13:54:17.577Z,15.30
2019-02-20T13:56:50.526Z,13.77
2019-02-20T13:59:24.834Z,11.33
2019-02-20T14:01:57.166Z,9.63
2019-02-20T14:04:30.047Z,9.77
2019-02-20T14:07:01.892Z,14.97
2019-02-20T14:09:36.058Z,14.77
2019-02-20T14:12:07.948Z,10.13
2019-02-20T14:14:40.117Z,12.17
2019-02-20T14:17:12.006Z,9.23
2019-02-20T14:19:43.873Z,10.37
2019-02-20T14:22:15.726Z,11.80
2019-02-20T14:24:49.239Z,10.47
2019-02-20T14:27:21.334Z,10.83
2019-02-20T14:29:53.180Z,13.60
2019-02-20T14:32:26.212Z,9.67
2019-02-20T14:34:58.170Z,9.60
2019-02-20T14:37:31.061Z,11.90
2019-02-20T14:40:03.192Z,14.23
2019-02-20T14:42:36.359Z,10.73
2019-02-20T14:45:09.511Z,11.80
2019-02-20T14:47:41.407Z,10.27
2019-02-20T14:50:13.540Z,17.27
2019-02-20T14:52:45.435Z,9.63
2019-02-20T14:55:17.331Z,7.57
2019-02-20T14:57:51.019Z,9.40
2019-02-20T15:00:23.227Z,8.40
2019-02-20T15:02:55.127Z,9.73
2019-02-20T15:05:27.112Z,9.33
2019-02-20T15:07:58.993Z,12.03
2019-02-20T15:10:30.890Z,9.93
2019-02-20T15:13:02.770Z,12.33
2019-02-20T15:15:34.815Z,8.17
2019-02-20T15:18:06.825Z,7.97
2019-02-20T15:20:38.731Z,9.73
2019-02-20T15:23:10.817Z,8.40
2019-02-20T15:25:42.683Z,11.20
2019-02-20T15:28:14.574Z,9.73
2019-02-20T15:30:46.467Z,7.17
2019-02-20T15:33:18.358Z,9.37
2019-02-20T15:35:50.303Z,8.87
2019-02-20T15:38:22.140Z,9.20
2019-02-20T15:40:54.092Z,10.83
2019-02-20T15:43:26.136Z,10.77
2019-02-20T15:45:57.914Z,11.97
2019-02-20T15:48:29.863Z,8.00
2019-02-20T15:51:05.453Z,10.93
2019-02-20T15:53:37.359Z,12.07
2019-02-20T15:56:11.521Z,8.77
2019-02-20T15:58:44.127Z,10.47
2019-02-20T16:01:20.035Z,11.97
2019-02-20T16:03:51.908Z,10.10
2019-02-20T16:06:24.112Z,9.77
2019-02-20T16:08:56.195Z,7.90
2019-02-20T16:11:32.947Z,8.20
2019-02-20T16:14:05.088Z,9.40
2019-02-20T16:16:37.228Z,8.07
2019-02-20T16:19:09.442Z,8.57
2019-02-20T16:21:42.273Z,9.43
2019-02-20T16:24:14.135Z,9.50
2019-02-20T16:26:46.080Z,13.93
2019-02-20T16:29:18.046Z,11.97
2019-02-20T16:31:51.449Z,10.77
2019-02-20T16:34:23.380Z,11.13
2019-02-20T16:36:57.597Z,10.67
2019-02-20T16:39:31.006Z,11.63
2019-02-20T16:42:04.059Z,8.73
2019-02-20T16:44:36.054Z,10.73
2019-02-20T16:50:33.408Z,14.13
2019-02-20T16:53:08.330Z,11.97
2019-02-20T16:55:41.443Z,14.90
2019-02-20T16:58:14.680Z,17.53
2019-02-20T17:01:01.911Z,15.80
2019-02-20T17:06:32.165Z,11.07
2019-02-20T17:09:06.568Z,13.93
2019-02-20T17:11:42.261Z,12.97
2019-02-20T17:14:17.863Z,11.90
2019-02-20T17:19:49.521Z,20.90
2019-02-20T17:22:23.079Z,12.17
2019-02-20T17:24:57.526Z,17.20
2019-02-20T17:27:29.342Z,11.53
2019-02-20T17:30:02.475Z,10.73
2019-02-20T17:36:09.077Z,13.07
2019-02-20T17:38:51.493Z,14.50
2019-02-20T17:41:27.664Z,17.83
2019-02-20T17:44:01.651Z,12.77
2019-02-20T17:46:33.339Z,8.50
2019-02-20T17:49:05.267Z,21.70
2019-02-20T17:51:37.566Z,16.67
2019-02-20T17:54:09.346Z,10.83
2019-02-20T17:56:41.281Z,14.17
2019-02-20T17:59:18.935Z,16.33
2019-02-20T18:01:50.849Z,13.37
2019-02-20T18:04:22.719Z,15.87
2019-02-20T18:06:54.595Z,11.50
2019-02-20T18:09:26.460Z,17.53
2019-02-20T18:12:02.645Z,13.20
2019-02-20T18:14:34.482Z,16.20
2019-02-20T18:17:06.316Z,17.97
2019-02-20T18:19:38.177Z,13.47
2019-02-20T18:22:15.502Z,14.63
2019-02-20T18:24:47.406Z,12.57
2019-02-20T18:27:19.257Z,13.17
2019-02-20T18:29:51.207Z,14.93
2019-02-20T18:32:26.331Z,14.37
2019-02-20T18:34:58.454Z,12.93
2019-02-20T18:37:30.284Z,12.33
2019-02-20T18:40:03.111Z,13.53
2019-02-20T18:42:36.308Z,13.37
2019-02-20T18:45:10.823Z,12.93
2019-02-20T18:47:42.718Z,18.27
2019-02-20T18:50:20.040Z,17.60
2019-02-20T18:52:52.224Z,19.33
2019-02-20T18:55:24.004Z,15.63
2019-02-20T18:57:55.890Z,21.77
2019-02-20T19:00:27.686Z,18.37
2019-02-20T19:03:00.929Z,14.33
2019-02-20T19:05:38.038Z,15.40
2019-02-20T19:08:58.894Z,23.50
2019-02-20T19:12:20.494Z,23.90
2019-02-20T19:15:33.557Z,22.30
2019-02-20T19:19:02.754Z,17.90
2019-02-20T19:21:59.735Z,18.53
2019-02-20T19:25:06.609Z,16.90
2019-02-20T19:28:20.574Z,18.30
2019-02-20T19:31:43.459Z,18.03
2019-02-20T19:34:56.917Z,18.30
2019-02-20T19:38:19.020Z,17.13
2019-02-20T19:41:40.467Z,19.73
2019-02-20T19:44:19.424Z,20.00
2019-02-20T19:47:08.667Z,19.10
2019-02-20T19:50:17.836Z,24.50
2019-02-20T19:53:07.644Z,20.23
2019-02-20T19:56:11.652Z,18.93
2019-02-20T19:59:32.587Z,16.67
2019-02-20T20:02:53.266Z,19.53
2019-02-20T20:06:09.316Z,22.60
2019-02-20T20:09:07.532Z,24.23
2019-02-20T20:12:27.049Z,22.47
2019-02-20T20:15:36.487Z,22.50
2019-02-20T20:18:49.654Z,21.13
2019-02-20T20:21:37.761Z,19.57
2019-02-20T20:24:36.610Z,22.73
2019-02-20T20:27:56.187Z,26.00
2019-02-20T20:31:14.783Z,21.83
2019-02-20T20:34:09.394Z,21.43
2019-02-20T20:37:30.046Z,18.33
2019-02-20T20:40:09.123Z,20.97
2019-02-20T20:43:20.586Z,19.17
2019-02-20T20:46:40.715Z,19.13
2019-02-20T20:49:37.246Z,18.03
2019-02-20T20:52:36.424Z,18.20
2019-02-20T20:55:43.227Z,20.70
2019-02-20T20:58:32.731Z,18.67
2019-02-20T21:01:28.676Z,18.83
2019-02-20T21:04:17.599Z,16.43
2019-02-20T21:07:16.695Z,15.40
2019-02-20T21:10:35.481Z,17.90
2019-02-20T21:13:42.747Z,17.03
2019-02-20T21:16:36.073Z,18.23
2019-02-20T21:19:37.591Z,18.70
2019-02-20T21:22:42.838Z,16.40
2019-02-20T21:26:03.443Z,17.30
2019-02-20T21:29:28.395Z,18.63
2019-02-20T21:32:42.679Z,20.97
2019-02-20T21:35:39.223Z,20.70
2019-02-20T21:38:59.868Z,22.10
2019-02-20T21:42:03.052Z,16.93
2019-02-20T21:45:16.473Z,17.93
2019-02-20T21:48:12.990Z,18.07
2019-02-20T21:51:09.904Z,17.77
2019-02-20T21:54:27.107Z,19.07
2019-02-20T21:57:16.768Z,17.37
2019-02-20T22:00:23.644Z,21.70
2019-02-20T22:03:54.761Z,19.13
2019-02-20T22:07:05.707Z,20.67
2019-02-20T22:10:14.260Z,20.30
2019-02-20T22:13:51.064Z,19.80
2019-02-20T22:16:58.473Z,21.00
2019-02-20T22:20:16.986Z,19.13
2019-02-20T22:23:16.324Z,22.10
2019-02-20T22:26:31.796Z,20.03
2019-02-20T22:30:02.383Z,17.27
2019-02-20T22:33:08.875Z,21.57
2019-02-20T22:36:13.505Z,18.03
2019-02-20T22:39:23.411Z,18.80
2019-02-20T22:42:42.481Z,21.60
2019-02-20T22:45:33.548Z,18.43
2019-02-20T22:48:47.679Z,20.13
2019-02-20T22:51:48.444Z,17.07
2019-02-20T22:55:07.474Z,17.63
2019-02-20T22:58:11.063Z,20.80
2019-02-20T23:01:41.999Z,21.60
2019-02-20T23:04:54.226Z,17.67
2019-02-20T23:08:02.441Z,20.10
2019-02-20T23:11:16.262Z,17.63
2019-02-20T23:14:02.565Z,21.07
2019-02-20T23:16:35.352Z,23.03
2019-02-20T23:19:07.223Z,21.23
2019-02-20T23:21:39.123Z,19.10
2019-02-20T23:24:11.003Z,23.00
2019-02-20T23:26:43.875Z,21.70
2019-02-20T23:29:16.783Z,19.73
2019-02-20T23:31:48.665Z,17.93
2019-02-20T23:34:20.545Z,20.20
2019-02-20T23:36:54.608Z,23.60
2019-02-20T23:39:26.537Z,21.87
2019-02-20T23:41:58.457Z,22.87
2019-02-20T23:44:30.338Z,27.20
2019-02-20T23:47:02.248Z,24.00
2019-02-20T23:49:35.157Z,21.17
2019-02-20T23:52:07.007Z,24.23
2019-02-20T23:54:38.883Z,22.20
2019-02-20T23:57:10.746Z,22.63
2019-02-20T23:59:42.681Z,23.60
